createdAt,value
2024-03-02T00:16:50.786Z,11.81
2024-03-02T00:19:55.813Z,11.77
2024-03-02T00:23:00.588Z,11.77
2024-03-02T00:49:56.178Z,11.60
2024-03-02T00:58:59.930Z,11.63
2024-03-02T01:02:27.890Z,11.65
2024-03-02T01:05:22.519Z,11.69
2024-03-02T01:08:08.114Z,11.71
2024-03-02T01:11:24.108Z,11.77
2024-03-02T01:14:24.505Z,11.82
2024-03-02T01:17:22.238Z,11.91
2024-03-02T01:47:45.012Z,12.13
2024-03-02T01:57:19.580Z,12.13
2024-03-02T02:03:05.368Z,12.14
2024-03-02T02:12:15.886Z,12.21
2024-03-02T02:15:26.271Z,12.26
2024-03-02T02:22:13.710Z,12.29
2024-03-02T02:27:23.326Z,12.26
2024-03-02T02:30:18.545Z,12.25
2024-03-02T02:33:19.830Z,12.25
2024-03-02T02:35:45.482Z,12.17
2024-03-02T02:38:16.504Z,12.12
2024-03-02T02:40:46.056Z,12.11
2024-03-02T02:43:14.782Z,12.15
2024-03-02T02:45:45.630Z,12.17
2024-03-02T02:48:19.850Z,12.17
2024-03-02T02:50:50.974Z,12.16
2024-03-02T02:53:18.939Z,12.15
2024-03-02T02:55:47.444Z,12.13
2024-03-02T03:00:45.527Z,12.11
2024-03-02T03:03:13.750Z,12.11
2024-03-02T03:05:42.737Z,12.14
2024-03-02T03:08:13.528Z,12.16
2024-03-02T03:10:42.309Z,12.18
2024-03-02T03:13:13.661Z,12.19
2024-03-02T03:15:44.437Z,12.19
2024-03-02T03:18:15.139Z,12.23
2024-03-02T03:20:45.904Z,12.21
2024-03-02T03:23:17.353Z,12.20
2024-03-02T03:25:45.945Z,12.19
2024-03-02T03:28:13.864Z,12.17
2024-03-02T03:30:45.126Z,12.13
2024-03-02T03:33:13.062Z,12.10
2024-03-02T03:35:40.991Z,12.07
2024-03-02T03:38:08.876Z,12.05
2024-03-02T03:40:36.838Z,12.05
2024-03-02T03:43:05.252Z,12.03
2024-03-02T03:45:45.561Z,12.03
2024-03-02T03:48:45.647Z,12.06
2024-03-02T03:51:13.727Z,12.10
2024-03-02T03:53:43.989Z,12.13
2024-03-02T03:56:12.267Z,12.14
2024-03-02T03:58:40.289Z,12.14
2024-03-02T04:01:08.575Z,12.17
2024-03-02T04:06:10.154Z,12.22
2024-03-02T04:08:43.626Z,12.23
2024-03-02T04:11:11.997Z,12.26
2024-03-02T04:13:40.288Z,12.29
2024-03-02T04:16:10.282Z,12.31
2024-03-02T04:18:39.074Z,12.35
2024-03-02T04:21:07.412Z,12.37
2024-03-02T04:23:35.390Z,12.38
2024-03-02T04:26:03.877Z,12.42
2024-03-02T04:28:35.066Z,12.43
2024-03-02T04:31:03.604Z,12.46
2024-03-02T04:33:31.727Z,12.49
2024-03-02T04:36:01.539Z,12.50
2024-03-02T04:38:36.877Z,12.51
2024-03-02T04:41:04.826Z,12.51
2024-03-02T04:43:33.809Z,12.51
2024-03-02T04:46:12.895Z,12.52
2024-03-02T04:48:43.824Z,12.54
2024-03-02T04:51:11.823Z,12.54
2024-03-02T04:53:43.062Z,12.54
2024-03-02T04:56:49.150Z,12.53
2024-03-02T04:59:17.602Z,12.52
2024-03-02T05:01:45.701Z,12.53
2024-03-02T05:04:13.698Z,12.52
2024-03-02T05:06:54.663Z,12.52
2024-03-02T05:09:26.029Z,12.50
2024-03-02T05:12:31.244Z,12.51
2024-03-02T05:14:59.547Z,12.50
2024-03-02T05:17:27.446Z,12.51
2024-03-02T05:19:55.332Z,12.51
2024-03-02T05:22:23.271Z,12.51
2024-03-02T05:24:51.251Z,12.49
2024-03-02T05:27:19.216Z,12.48
2024-03-02T05:29:47.132Z,12.47
2024-03-02T05:32:15.077Z,12.47
2024-03-02T05:34:43.122Z,12.45
2024-03-02T05:37:11.242Z,12.43
2024-03-02T05:39:39.254Z,12.43
2024-03-02T05:42:07.908Z,12.42
2024-03-02T05:44:35.805Z,12.40
2024-03-02T05:47:05.147Z,12.38
2024-03-02T05:49:33.289Z,12.38
2024-03-02T05:52:01.480Z,12.36
2024-03-02T05:54:29.904Z,12.36
2024-03-02T05:56:57.851Z,12.35
2024-03-02T05:59:25.753Z,12.34
2024-03-02T06:01:53.925Z,12.34
2024-03-02T06:04:21.877Z,12.34
2024-03-02T06:06:51.549Z,12.34
2024-03-02T06:09:19.983Z,12.34
2024-03-02T06:11:48.433Z,12.34
2024-03-02T06:14:16.305Z,12.35
2024-03-02T06:16:44.211Z,12.36
2024-03-02T06:19:12.176Z,12.38
2024-03-02T06:21:40.187Z,12.38
2024-03-02T06:24:08.452Z,12.38
2024-03-02T06:26:36.516Z,12.38
2024-03-02T06:29:04.777Z,12.38
2024-03-02T06:31:32.780Z,12.38
2024-03-02T06:34:00.967Z,12.38
2024-03-02T06:36:32.000Z,12.38
2024-03-02T06:39:00.114Z,12.40
2024-03-02T06:41:28.747Z,12.38
2024-03-02T06:44:01.641Z,12.38
2024-03-02T06:46:29.662Z,12.37
2024-03-02T06:48:57.734Z,12.37
2024-03-02T06:51:25.831Z,12.35
2024-03-02T06:53:53.761Z,12.36
2024-03-02T06:56:21.742Z,12.34
2024-03-02T06:58:49.775Z,12.33
2024-03-02T07:01:17.832Z,12.32
2024-03-02T07:03:46.152Z,12.32
2024-03-02T07:06:14.125Z,12.31
2024-03-02T07:08:42.034Z,12.29
2024-03-02T07:11:09.977Z,12.30
2024-03-02T07:13:37.929Z,12.27
2024-03-02T07:16:06.042Z,12.28
2024-03-02T07:18:35.406Z,12.26
2024-03-02T07:21:03.345Z,12.24
2024-03-02T07:23:32.224Z,12.25
2024-03-02T07:28:34.228Z,12.24
2024-03-02T07:31:03.094Z,12.23
2024-03-02T07:33:31.322Z,12.23
2024-03-02T07:36:04.231Z,12.23
2024-03-02T07:38:33.797Z,12.22
2024-03-02T07:41:02.492Z,12.21
2024-03-02T07:43:30.732Z,12.20
2024-03-02T07:45:59.093Z,12.20
2024-03-02T07:48:29.596Z,12.21
2024-03-02T07:50:57.951Z,12.23
2024-03-02T07:53:25.952Z,12.23
2024-03-02T07:55:53.958Z,12.21
2024-03-02T07:58:21.973Z,12.20
2024-03-02T08:00:51.727Z,12.18
2024-03-02T08:03:21.346Z,12.16
2024-03-02T08:05:49.238Z,12.14
2024-03-02T08:08:20.231Z,12.12
2024-03-02T08:10:48.290Z,12.11
2024-03-02T08:13:16.309Z,12.09
2024-03-02T08:15:44.290Z,12.06
2024-03-02T08:18:12.366Z,12.05
2024-03-02T08:20:43.226Z,12.03
2024-03-02T08:23:11.281Z,12.03
2024-03-02T08:25:39.308Z,12.02
2024-03-02T08:28:07.564Z,12.00
2024-03-02T08:30:35.622Z,11.99
2024-03-02T08:33:03.578Z,11.98
2024-03-02T08:35:31.690Z,11.98
2024-03-02T08:37:59.789Z,11.97
2024-03-02T08:40:27.715Z,11.96
2024-03-02T08:42:55.847Z,11.96
2024-03-02T08:45:27.105Z,11.96
2024-03-02T08:47:55.085Z,11.94
2024-03-02T08:50:23.173Z,11.93
2024-03-02T08:52:51.174Z,11.94
2024-03-02T08:55:19.313Z,11.94
2024-03-02T08:57:53.513Z,11.95
2024-03-02T09:00:21.788Z,11.95
2024-03-02T09:02:51.609Z,11.95
2024-03-02T09:05:19.556Z,11.94
2024-03-02T09:07:49.388Z,11.93
2024-03-02T09:10:17.856Z,11.94
2024-03-02T09:12:45.859Z,11.93
2024-03-02T09:15:13.824Z,11.93
2024-03-02T09:17:42.404Z,11.93
2024-03-02T09:20:13.348Z,11.94
2024-03-02T09:22:41.243Z,11.95
2024-03-02T09:25:10.644Z,11.95
2024-03-02T09:27:39.676Z,11.96
2024-03-02T09:30:10.072Z,11.95
2024-03-02T09:32:38.859Z,11.93
2024-03-02T09:35:07.380Z,11.93
2024-03-02T09:37:35.731Z,11.92
2024-03-02T09:40:04.014Z,11.91
2024-03-02T09:42:32.384Z,11.90
2024-03-02T09:45:00.459Z,11.88
2024-03-02T09:47:28.381Z,11.88
2024-03-02T09:50:03.644Z,11.85
2024-03-02T09:52:33.103Z,11.86
2024-03-02T09:55:01.088Z,11.83
2024-03-02T09:57:29.155Z,11.81
2024-03-02T09:59:57.067Z,11.80
2024-03-02T10:02:25.175Z,11.78
2024-03-02T10:04:53.107Z,11.76
2024-03-02T10:07:21.652Z,11.75
2024-03-02T10:09:50.750Z,11.75
2024-03-02T10:12:19.526Z,11.73
2024-03-02T10:14:47.759Z,11.72
2024-03-02T10:17:17.399Z,11.71
2024-03-02T10:19:45.265Z,11.68
2024-03-02T10:22:13.267Z,11.68
2024-03-02T10:24:41.257Z,11.67
2024-03-02T10:27:19.930Z,11.64
2024-03-02T10:29:49.151Z,11.63
2024-03-02T10:32:17.569Z,11.63
2024-03-02T10:34:47.025Z,11.60
2024-03-02T10:37:15.174Z,11.59
2024-03-02T10:39:43.183Z,11.59
2024-03-02T10:42:11.469Z,11.57
2024-03-02T10:44:39.734Z,11.55
2024-03-02T10:47:07.720Z,11.52
2024-03-02T10:49:35.775Z,11.51
2024-03-02T10:52:04.195Z,11.50
2024-03-02T10:54:38.541Z,11.50
2024-03-02T10:57:07.601Z,11.48
2024-03-02T10:59:37.407Z,11.51
2024-03-02T11:02:06.833Z,11.52
2024-03-02T11:04:36.837Z,11.52
2024-03-02T11:07:06.510Z,11.54
2024-03-02T11:09:39.418Z,11.55
2024-03-02T11:12:21.506Z,11.54
2024-03-02T11:14:49.437Z,11.55
2024-03-02T11:17:20.514Z,11.55
2024-03-02T11:19:49.490Z,11.54
2024-03-02T11:22:17.862Z,11.52
2024-03-02T11:24:53.619Z,11.51
2024-03-02T11:27:40.190Z,11.51
2024-03-02T11:30:09.149Z,11.49
2024-03-02T11:32:37.211Z,11.47
2024-03-02T11:35:05.325Z,11.46
2024-03-02T11:37:33.285Z,11.44
2024-03-02T11:40:01.391Z,11.44
2024-03-02T11:42:29.493Z,11.42
2024-03-02T11:44:58.794Z,11.41
2024-03-02T11:47:34.826Z,11.39
2024-03-02T11:50:03.789Z,11.38
2024-03-02T11:52:35.184Z,11.37
2024-03-02T11:55:05.469Z,11.36
2024-03-02T11:57:33.740Z,11.33
2024-03-02T12:00:03.284Z,11.30
2024-03-02T12:02:31.296Z,11.30
2024-03-02T12:04:59.462Z,11.28
2024-03-02T12:07:30.292Z,11.29
2024-03-02T12:10:05.515Z,11.28
2024-03-02T12:12:37.214Z,11.26
2024-03-02T12:15:05.370Z,11.25
2024-03-02T12:17:33.302Z,11.23
2024-03-02T12:20:01.222Z,11.23
2024-03-02T12:22:29.158Z,11.19
2024-03-02T12:24:57.178Z,11.18
2024-03-02T12:27:25.210Z,11.14
2024-03-02T12:29:53.093Z,11.10
2024-03-02T12:32:21.412Z,11.08
2024-03-02T12:34:49.766Z,11.06
2024-03-02T12:37:24.863Z,11.02
2024-03-02T12:39:53.168Z,10.98
2024-03-02T12:42:21.110Z,10.95
2024-03-02T12:44:49.216Z,10.92
2024-03-02T12:47:17.193Z,10.90
2024-03-02T12:49:48.124Z,10.86
2024-03-02T12:52:16.367Z,10.82
2024-03-02T12:54:44.430Z,10.78
2024-03-02T12:57:18.956Z,10.75
2024-03-02T12:59:49.901Z,10.73
2024-03-02T13:02:26.625Z,10.70
2024-03-02T13:04:58.465Z,10.67
2024-03-02T13:07:27.599Z,10.67
2024-03-02T13:10:00.334Z,10.64
2024-03-02T13:12:28.303Z,10.62
2024-03-02T13:14:56.500Z,10.62
2024-03-02T13:17:24.544Z,10.61
2024-03-02T13:19:55.206Z,10.59
2024-03-02T13:22:23.624Z,10.57
2024-03-02T13:24:59.479Z,10.56
2024-03-02T13:27:27.445Z,10.57
2024-03-02T13:29:56.460Z,10.56
2024-03-02T13:32:26.243Z,10.52
2024-03-02T13:34:54.838Z,10.49
2024-03-02T13:37:23.409Z,10.43
2024-03-02T13:39:51.456Z,10.40
2024-03-02T13:42:19.772Z,10.36
2024-03-02T13:44:50.168Z,10.31
2024-03-02T13:47:18.085Z,10.29
2024-03-02T13:49:48.659Z,10.25
2024-03-02T13:52:16.914Z,10.21
2024-03-02T13:54:48.735Z,10.19
2024-03-02T13:57:28.403Z,10.13
2024-03-02T13:59:56.768Z,10.08
2024-03-02T14:02:28.415Z,10.04
2024-03-02T14:04:56.448Z,10.02
2024-03-02T14:07:24.399Z,10.00
2024-03-02T14:09:52.378Z,10.00
2024-03-02T14:12:24.375Z,10.00
2024-03-02T14:14:55.371Z,10.02
2024-03-02T14:17:24.687Z,10.02
2024-03-02T14:19:56.454Z,10.03
2024-03-02T14:22:24.406Z,10.03
2024-03-02T14:24:57.859Z,10.03
2024-03-02T14:27:37.592Z,10.02
2024-03-02T14:30:18.550Z,10.05
2024-03-02T14:32:51.413Z,10.04
2024-03-02T14:35:27.469Z,9.99
2024-03-02T14:37:59.868Z,9.95
2024-03-02T14:40:29.559Z,9.93
2024-03-02T14:42:57.512Z,9.92
2024-03-02T14:45:26.102Z,9.90
2024-03-02T14:47:56.173Z,9.88
2024-03-02T14:50:29.747Z,9.84
2024-03-02T14:53:01.404Z,9.81
2024-03-02T14:55:29.761Z,9.77
2024-03-02T14:57:57.756Z,9.75
2024-03-02T15:00:25.934Z,9.76
2024-03-02T15:02:54.268Z,9.76
2024-03-02T15:05:24.899Z,9.72
2024-03-02T15:07:56.078Z,9.64
2024-03-02T15:10:24.054Z,9.51
2024-03-02T15:12:52.209Z,9.45
2024-03-02T15:18:26.642Z,9.40
2024-03-02T15:20:54.629Z,9.38
2024-03-02T15:25:52.836Z,9.34
2024-03-02T15:28:20.948Z,9.33
2024-03-02T15:30:55.907Z,9.31
2024-03-02T15:36:56.531Z,9.30
2024-03-02T15:40:41.802Z,9.32
2024-03-02T15:45:06.625Z,9.48
2024-03-02T15:47:56.098Z,9.61
2024-03-02T15:51:06.120Z,9.79
2024-03-02T15:53:53.333Z,9.96
2024-03-02T15:56:22.277Z,10.11
2024-03-02T16:01:19.008Z,10.33
2024-03-02T16:03:55.493Z,10.42
2024-03-02T16:07:02.568Z,10.51
2024-03-02T16:12:55.005Z,10.63
2024-03-02T16:23:03.074Z,10.55
2024-03-02T16:27:01.688Z,10.48
2024-03-02T16:40:09.133Z,10.34
2024-03-02T16:42:52.240Z,10.45
2024-03-02T16:45:22.573Z,10.63
2024-03-02T16:47:53.257Z,10.77
2024-03-02T16:50:21.430Z,10.87
2024-03-02T16:56:08.824Z,11.06
2024-03-02T16:58:55.969Z,11.16
2024-03-02T17:06:03.898Z,11.38
2024-03-02T17:11:51.792Z,11.65
2024-03-02T17:20:24.770Z,11.74
2024-03-02T17:23:20.899Z,11.71
2024-03-02T17:29:27.038Z,11.68
2024-03-02T17:32:20.326Z,11.71
2024-03-02T17:35:26.409Z,11.75
2024-03-02T17:38:53.720Z,11.80
2024-03-02T17:41:22.011Z,11.90
2024-03-02T17:51:18.527Z,12.01
2024-03-02T17:54:29.709Z,11.98
2024-03-02T18:00:29.596Z,12.10
2024-03-02T18:06:26.358Z,12.14
2024-03-02T18:09:23.944Z,12.17
2024-03-02T18:11:52.017Z,12.27
2024-03-02T18:14:20.254Z,12.37
2024-03-02T18:16:49.905Z,12.47
2024-03-02T18:22:31.172Z,12.63
2024-03-02T18:40:54.113Z,13.25
2024-03-02T18:43:50.300Z,13.14
2024-03-02T18:46:18.566Z,13.10
2024-03-02T18:55:54.472Z,13.45
2024-03-02T19:17:19.193Z,14.33
2024-03-02T19:19:52.422Z,14.24
2024-03-02T19:22:21.000Z,14.19
2024-03-02T19:24:48.906Z,14.25
2024-03-02T19:27:19.771Z,14.29
2024-03-02T19:29:55.981Z,14.20
2024-03-02T19:32:48.032Z,14.03
2024-03-02T19:35:17.957Z,13.74
2024-03-02T19:37:48.631Z,13.43
2024-03-02T19:40:19.628Z,13.28
2024-03-02T19:42:48.485Z,13.17
2024-03-02T19:45:18.460Z,12.97
2024-03-02T19:47:49.524Z,12.92
2024-03-02T19:50:19.623Z,13.01
2024-03-02T19:52:47.825Z,13.10
2024-03-02T19:55:22.381Z,13.18
2024-03-02T19:57:52.926Z,13.24
2024-03-02T20:00:20.908Z,13.32
2024-03-02T20:02:49.212Z,13.31
2024-03-02T20:05:17.637Z,13.21
2024-03-02T20:07:52.869Z,13.15
2024-03-02T20:10:22.153Z,13.18
2024-03-02T20:12:50.318Z,13.28
2024-03-02T20:15:20.611Z,13.35
2024-03-02T20:17:48.699Z,13.36
2024-03-02T20:20:18.643Z,13.32
2024-03-02T20:23:15.938Z,13.27
2024-03-02T20:25:47.935Z,13.15
2024-03-02T20:28:19.064Z,12.94
2024-03-02T20:31:16.209Z,12.80
2024-03-02T20:33:47.160Z,12.69
2024-03-02T20:36:17.486Z,12.73
2024-03-02T20:38:48.516Z,12.71
2024-03-02T20:41:17.837Z,12.76
2024-03-02T20:44:18.245Z,12.82
2024-03-02T20:47:17.043Z,12.90
2024-03-02T20:49:46.984Z,12.91
2024-03-02T20:52:16.416Z,12.88
2024-03-02T20:58:17.062Z,12.97
2024-03-02T21:00:46.480Z,13.01
2024-03-02T21:03:17.746Z,13.01
2024-03-02T21:11:49.904Z,12.87
2024-03-02T21:14:17.880Z,12.83
2024-03-02T21:20:17.723Z,12.68
2024-03-02T21:22:49.264Z,12.64
2024-03-02T21:28:22.477Z,12.61
2024-03-02T21:31:16.949Z,12.60
2024-03-02T21:33:45.218Z,12.58
2024-03-02T21:36:16.509Z,12.50
2024-03-02T21:38:44.688Z,12.44
2024-03-02T21:41:15.620Z,12.35
2024-03-02T21:47:21.625Z,12.17
2024-03-02T21:50:21.844Z,12.08
2024-03-02T21:53:15.649Z,12.05
2024-03-02T21:55:46.312Z,12.00
2024-03-02T21:58:14.422Z,11.96
2024-03-02T22:09:15.559Z,11.84
2024-03-02T22:12:13.771Z,11.78
2024-03-02T22:23:16.508Z,11.32
2024-03-02T22:25:44.478Z,11.21
2024-03-02T22:28:16.146Z,11.16
2024-03-02T22:30:44.141Z,11.13
2024-03-02T22:33:14.761Z,11.11
2024-03-02T22:35:44.459Z,11.09
2024-03-02T22:38:16.810Z,11.07
2024-03-02T22:41:15.602Z,11.05
2024-03-02T22:43:34.249Z,10.99
2024-03-02T22:46:43.196Z,10.93
2024-03-02T22:49:22.644Z,10.85
2024-03-02T22:52:15.105Z,10.78
2024-03-02T22:54:43.133Z,10.75
2024-03-02T22:57:23.293Z,10.71
2024-03-02T23:00:43.091Z,10.60
2024-03-02T23:03:15.138Z,10.50
2024-03-02T23:05:43.032Z,10.40
2024-03-02T23:08:14.567Z,10.27
2024-03-02T23:10:44.031Z,10.22
2024-03-02T23:13:15.816Z,10.19
2024-03-02T23:15:46.193Z,10.17
2024-03-02T23:18:16.369Z,10.16
2024-03-02T23:23:47.550Z,10.24
2024-03-02T23:26:15.669Z,10.26
2024-03-02T23:28:43.841Z,10.31
2024-03-02T23:31:13.248Z,10.36
2024-03-02T23:36:41.851Z,10.45
2024-03-02T23:42:13.095Z,10.51
2024-03-02T23:44:44.549Z,10.55
2024-03-02T23:53:20.753Z,10.49
2024-03-02T23:55:52.571Z,10.40
2024-03-02T23:58:42.794Z,10.35
